sensor_id;sensor_type;location;lat;lon;timestamp;pressure;altitude;pressure_sealevel;temperature;humidity
20013;BME280;10167;42.852;23.042;2023-04-08T00:00:08;94964.91;;;5.31;100.00
20013;BME280;10167;42.852;23.042;2023-04-08T00:02:39;94965.53;;;5.26;100.00
20013;BME280;10167;42.852;23.042;2023-04-08T00:05:08;94962.47;;;5.09;100.00
20013;BME280;10167;42.852;23.042;2023-04-08T00:07:39;94967.75;;;5.23;100.00
20013;BME280;10167;42.852;23.042;2023-04-08T00:10:09;94966.31;;;5.14;100.00
20013;BME280;10167;42.852;23.042;2023-04-08T00:12:39;94960.88;;;5.22;100.00
20013;BME280;10167;42.852;23.042;2023-04-08T00:15:08;94964.13;;;5.30;100.00
20013;BME280;10167;42.852;23.042;2023-04-08T00:17:37;94963.28;;;5.10;100.00
20013;BME280;10167;42.852;23.042;2023-04-08T00:20:07;94956.63;;;5.01;100.00
20013;BME280;10167;42.852;23.042;2023-04-08T00:22:36;94952.19;;;5.15;100.00
20013;BME280;10167;42.852;23.042;2023-04-08T00:25:08;94959.47;;;5.19;100.00
20013;BME280;10167;42.852;23.042;2023-04-08T00:27:38;94956.22;;;5.04;100.00
20013;BME280;10167;42.852;23.042;2023-04-08T00:30:07;94960.66;;;4.84;100.00
20013;BME280;10167;42.852;23.042;2023-04-08T00:32:37;94952.38;;;4.93;100.00
20013;BME280;10167;42.852;23.042;2023-04-08T00:35:07;94944.91;;;4.97;100.00
20013;BME280;10167;42.852;23.042;2023-04-08T00:37:36;94938.47;;;4.93;100.00
20013;BME280;10167;42.852;23.042;2023-04-08T00:40:08;94950.97;;;4.97;100.00
20013;BME280;10167;42.852;23.042;2023-04-08T00:42:38;94955.19;;;4.98;100.00
20013;BME280;10167;42.852;23.042;2023-04-08T00:45:08;94949.13;;;4.98;100.00
20013;BME280;10167;42.852;23.042;2023-04-08T00:47:38;94954.19;;;4.93;100.00
20013;BME280;10167;42.852;23.042;2023-04-08T00:50:08;94969.94;;;4.99;100.00
20013;BME280;10167;42.852;23.042;2023-04-08T00:52:38;94952.19;;;4.95;100.00
20013;BME280;10167;42.852;23.042;2023-04-08T00:55:09;94949.16;;;4.91;100.00
20013;BME280;10167;42.852;23.042;2023-04-08T00:57:38;94951.19;;;4.96;100.00
20013;BME280;10167;42.852;23.042;2023-04-08T01:00:09;94957.00;;;4.98;100.00
20013;BME280;10167;42.852;23.042;2023-04-08T01:02:44;94957.81;;;4.92;100.00
20013;BME280;10167;42.852;23.042;2023-04-08T01:05:16;94963.06;;;4.92;100.00
20013;BME280;10167;42.852;23.042;2023-04-08T01:07:49;94954.97;;;4.80;100.00
20013;BME280;10167;42.852;23.042;2023-04-08T01:10:22;94947.34;;;4.92;100.00
20013;BME280;10167;42.852;23.042;2023-04-08T01:12:55;94961.47;;;4.91;100.00
20013;BME280;10167;42.852;23.042;2023-04-08T01:15:25;94961.47;;;4.91;100.00
20013;BME280;10167;42.852;23.042;2023-04-08T01:17:58;94957.81;;;4.92;100.00
20013;BME280;10167;42.852;23.042;2023-04-08T01:20:28;94961.47;;;4.91;100.00
20013;BME280;10167;42.852;23.042;2023-04-08T01:23:05;94964.28;;;4.89;100.00
20013;BME280;10167;42.852;23.042;2023-04-08T01:25:44;94962.47;;;4.83;100.00
20013;BME280;10167;42.852;23.042;2023-04-08T01:28:15;94964.47;;;4.81;100.00
20013;BME280;10167;42.852;23.042;2023-04-08T01:30:46;94961.22;;;4.79;100.00
20013;BME280;10167;42.852;23.042;2023-04-08T01:33:18;94956.19;;;4.78;100.00
20013;BME280;10167;42.852;23.042;2023-04-08T01:35:50;94956.19;;;4.78;100.00
20013;BME280;10167;42.852;23.042;2023-04-08T01:38:22;94951.31;;;4.68;100.00
20013;BME280;10167;42.852;23.042;2023-04-08T01:40:54;94958.78;;;4.64;100.00
20013;BME280;10167;42.852;23.042;2023-04-08T01:43:25;94955.94;;;4.59;100.00
20013;BME280;10167;42.852;23.042;2023-04-08T01:45:55;94955.16;;;4.59;100.00
20013;BME280;10167;42.852;23.042;2023-04-08T01:48:26;94960.59;;;4.57;100.00
20013;BME280;10167;42.852;23.042;2023-04-08T01:50:56;94961.00;;;4.61;100.00
20013;BME280;10167;42.852;23.042;2023-04-08T01:53:26;94968.88;;;4.61;100.00
20013;BME280;10167;42.852;23.042;2023-04-08T01:56:03;94974.69;;;4.56;100.00
20013;BME280;10167;42.852;23.042;2023-04-08T01:58:36;94977.91;;;4.52;100.00
20013;BME280;10167;42.852;23.042;2023-04-08T02:01:10;94978.28;;;4.42;100.00
20013;BME280;10167;42.852;23.042;2023-04-08T02:03:41;94985.75;;;4.38;100.00
20013;BME280;10167;42.852;23.042;2023-04-08T02:06:13;94992.78;;;4.38;100.00
20013;BME280;10167;42.852;23.042;2023-04-08T02:08:44;94985.13;;;4.36;100.00
20013;BME280;10167;42.852;23.042;2023-04-08T02:11:15;94996.41;;;4.37;100.00
20013;BME280;10167;42.852;23.042;2023-04-08T02:13:44;94996.22;;;4.38;100.00
20013;BME280;10167;42.852;23.042;2023-04-08T02:16:37;94998.69;;;4.53;100.00
20013;BME280;10167;42.852;23.042;2023-04-08T02:19:11;95002.16;;;4.60;100.00
20013;BME280;10167;42.852;23.042;2023-04-08T02:21:48;95008.16;;;4.48;100.00
20013;BME280;10167;42.852;23.042;2023-04-08T02:24:21;95005.28;;;4.36;100.00
20013;BME280;10167;42.852;23.042;2023-04-08T02:26:55;95004.13;;;4.52;100.00
20013;BME280;10167;42.852;23.042;2023-04-08T02:29:25;95004.34;;;4.57;100.00
20013;BME280;10167;42.852;23.042;2023-04-08T02:31:57;95005.78;;;4.59;100.00
20013;BME280;10167;42.852;23.042;2023-04-08T02:34:29;95000.53;;;4.59;100.00
20013;BME280;10167;42.852;23.042;2023-04-08T02:36:59;94999.72;;;4.65;100.00
20013;BME280;10167;42.852;23.042;2023-04-08T02:39:30;95001.34;;;4.66;100.00
20013;BME280;10167;42.852;23.042;2023-04-08T02:42:01;94994.50;;;4.65;100.00
20013;BME280;10167;42.852;23.042;2023-04-08T02:44:31;94996.91;;;4.67;100.00
20013;BME280;10167;42.852;23.042;2023-04-08T02:47:02;94999.97;;;4.70;100.00
20013;BME280;10167;42.852;23.042;2023-04-08T02:49:34;94997.34;;;4.77;100.00
20013;BME280;10167;42.852;23.042;2023-04-08T02:52:03;95001.34;;;4.60;100.00
20013;BME280;10167;42.852;23.042;2023-04-08T02:54:32;94994.50;;;4.65;100.00
20013;BME280;10167;42.852;23.042;2023-04-08T02:57:03;94993.09;;;4.69;100.00
20013;BME280;10167;42.852;23.042;2023-04-08T02:59:32;94987.84;;;4.69;100.00
20013;BME280;10167;42.852;23.042;2023-04-08T03:02:04;94986.22;;;4.68;100.00
20013;BME280;10167;42.852;23.042;2023-04-08T03:04:33;94987.25;;;4.74;100.00
20013;BME280;10167;42.852;23.042;2023-04-08T03:07:02;94986.66;;;4.72;100.00
20013;BME280;10167;42.852;23.042;2023-04-08T03:09:34;94985.63;;;4.66;100.00
20013;BME280;10167;42.852;23.042;2023-04-08T03:12:05;94977.16;;;4.71;100.00
20013;BME280;10167;42.852;23.042;2023-04-08T03:14:34;94982.00;;;4.74;100.00
20013;BME280;10167;42.852;23.042;2023-04-08T03:17:04;94977.56;;;4.74;100.00
20013;BME280;10167;42.852;23.042;2023-04-08T03:19:33;94986.22;;;4.68;100.00
20013;BME280;10167;42.852;23.042;2023-04-08T03:22:02;94987.03;;;4.69;100.00
20013;BME280;10167;42.852;23.042;2023-04-08T03:24:31;94981.59;;;4.70;100.00
20013;BME280;10167;42.852;23.042;2023-04-08T03:27:00;94985.44;;;4.68;100.00
20013;BME280;10167;42.852;23.042;2023-04-08T03:29:31;94977.97;;;4.71;100.00
20013;BME280;10167;42.852;23.042;2023-04-08T03:32:00;94983.41;;;4.77;100.00
20013;BME280;10167;42.852;23.042;2023-04-08T03:34:29;94989.47;;;4.70;100.00
20013;BME280;10167;42.852;23.042;2023-04-08T03:36:59;94992.72;;;4.79;100.00
20013;BME280;10167;42.852;23.042;2023-04-08T03:39:28;94989.47;;;4.77;100.00
20013;BME280;10167;42.852;23.042;2023-04-08T03:41:57;94996.16;;;4.73;100.00
20013;BME280;10167;42.852;23.042;2023-04-08T03:44:27;94994.72;;;4.77;100.00
20013;BME280;10167;42.852;23.042;2023-04-08T03:46:58;94992.53;;;4.81;100.00
20013;BME280;10167;42.852;23.042;2023-04-08T03:49:27;94988.06;;;4.74;100.00
20013;BME280;10167;42.852;23.042;2023-04-08T03:51:56;94988.66;;;4.70;100.00
20013;BME280;10167;42.852;23.042;2023-04-08T03:54:25;94992.63;;;4.53;100.00
20013;BME280;10167;42.852;23.042;2023-04-08T03:56:55;94990.06;;;4.66;100.00
20013;BME280;10167;42.852;23.042;2023-04-08T03:59:24;94990.47;;;4.69;100.00
20013;BME280;10167;42.852;23.042;2023-04-08T04:01:53;94990.09;;;4.79;100.00
20013;BME280;10167;42.852;23.042;2023-04-08T04:04:24;94992.72;;;4.79;100.00
20013;BME280;10167;42.852;23.042;2023-04-08T04:06:53;95001.41;;;4.80;100.00
20013;BME280;10167;42.852;23.042;2023-04-08T04:09:23;94996.53;;;4.77;100.00
20013;BME280;10167;42.852;23.042;2023-04-08T04:11:52;95001.00;;;4.83;100.00
20013;BME280;10167;42.852;23.042;2023-04-08T04:14:21;95001.41;;;4.80;100.00
20013;BME280;10167;42.852;23.042;2023-04-08T04:16:50;94997.75;;;4.81;100.00
20013;BME280;10167;42.852;23.042;2023-04-08T04:19:19;95001.19;;;4.81;100.00
20013;BME280;10167;42.852;23.042;2023-04-08T04:21:49;94999.97;;;4.77;100.00
20013;BME280;10167;42.852;23.042;2023-04-08T04:24:18;95000.78;;;4.78;100.00
20013;BME280;10167;42.852;23.042;2023-04-08T04:26:47;95013.50;;;4.81;100.00
20013;BME280;10167;42.852;23.042;2023-04-08T04:29:17;95008.69;;;4.84;100.00
20013;BME280;10167;42.852;23.042;2023-04-08T04:31:46;95014.94;;;4.90;100.00
20013;BME280;10167;42.852;23.042;2023-04-08T04:34:15;95010.09;;;4.93;100.00
20013;BME280;10167;42.852;23.042;2023-04-08T04:36:44;95012.31;;;4.83;100.00
20013;BME280;10167;42.852;23.042;2023-04-08T04:39:15;95018.59;;;4.95;100.00
20013;BME280;10167;42.852;23.042;2023-04-08T04:41:44;95015.16;;;5.01;100.00
20013;BME280;10167;42.852;23.042;2023-04-08T04:44:15;95018.78;;;5.00;100.00
20013;BME280;10167;42.852;23.042;2023-04-08T04:46:44;95017.97;;;4.93;100.00
20013;BME280;10167;42.852;23.042;2023-04-08T04:49:13;95015.75;;;4.97;100.00
20013;BME280;10167;42.852;23.042;2023-04-08T04:51:43;95009.13;;;5.07;100.00
20013;BME280;10167;42.852;23.042;2023-04-08T04:54:12;95012.16;;;5.11;100.00
20013;BME280;10167;42.852;23.042;2023-04-08T04:56:42;95018.41;;;5.23;100.00
20013;BME280;10167;42.852;23.042;2023-04-08T04:59:12;95012.56;;;5.15;100.00
20013;BME280;10167;42.852;23.042;2023-04-08T05:01:41;95011.56;;;5.16;100.00
20013;BME280;10167;42.852;23.042;2023-04-08T05:04:10;95013.53;;;5.00;100.00
20013;BME280;10167;42.852;23.042;2023-04-08T05:06:39;95011.22;;;4.64;100.00
20013;BME280;10167;42.852;23.042;2023-04-08T05:09:08;95015.09;;;4.75;100.00
20013;BME280;10167;42.852;23.042;2023-04-08T05:11:37;95007.44;;;4.73;100.00
20013;BME280;10167;42.852;23.042;2023-04-08T05:14:08;95009.91;;;4.95;100.00
20013;BME280;10167;42.852;23.042;2023-04-08T05:16:37;95015.97;;;5.02;100.00
20013;BME280;10167;42.852;23.042;2023-04-08T05:19:06;95025.69;;;5.15;100.00
20013;BME280;10167;42.852;23.042;2023-04-08T05:21:36;95025.28;;;5.31;100.00
20013;BME280;10167;42.852;23.042;2023-04-08T05:24:05;95014.81;;;5.37;100.00
20013;BME280;10167;42.852;23.042;2023-04-08T05:26:36;95023.91;;;5.48;100.00
20013;BME280;10167;42.852;23.042;2023-04-08T05:29:05;95035.00;;;5.43;100.00
20013;BME280;10167;42.852;23.042;2023-04-08T05:31:36;95028.94;;;5.56;100.00
20013;BME280;10167;42.852;23.042;2023-04-08T05:34:05;95028.16;;;5.62;100.00
20013;BME280;10167;42.852;23.042;2023-04-08T05:36:34;95026.53;;;5.74;100.00
20013;BME280;10167;42.852;23.042;2023-04-08T05:39:03;95036.44;;;5.86;100.00
20013;BME280;10167;42.852;23.042;2023-04-08T05:41:32;95026.50;;;5.81;100.00
20013;BME280;10167;42.852;23.042;2023-04-08T05:44:01;95029.75;;;5.90;100.00
20013;BME280;10167;42.852;23.042;2023-04-08T05:46:31;95028.94;;;5.89;100.00
20013;BME280;10167;42.852;23.042;2023-04-08T05:49:01;95029.34;;;5.86;100.00
20013;BME280;10167;42.852;23.042;2023-04-08T05:51:30;95028.75;;;5.97;100.00
20013;BME280;10167;42.852;23.042;2023-04-08T05:53:59;95027.94;;;5.90;100.00
20013;BME280;10167;42.852;23.042;2023-04-08T05:56:29;95029.16;;;5.94;100.00
20013;BME280;10167;42.852;23.042;2023-04-08T05:58:58;95029.34;;;5.99;100.00
20013;BME280;10167;42.852;23.042;2023-04-08T06:01:28;95023.06;;;6.00;100.00
20013;BME280;10167;42.852;23.042;2023-04-08T06:03:57;95027.53;;;5.93;100.00
20013;BME280;10167;42.852;23.042;2023-04-08T06:06:28;95027.34;;;5.88;100.00
20013;BME280;10167;42.852;23.042;2023-04-08T06:08:57;95024.09;;;5.86;100.00
20013;BME280;10167;42.852;23.042;2023-04-08T06:11:26;95011.19;;;5.98;100.00
20013;BME280;10167;42.852;23.042;2023-04-08T06:13:55;95022.66;;;6.10;100.00
20013;BME280;10167;42.852;23.042;2023-04-08T06:16:24;95025.91;;;6.05;100.00
20013;BME280;10167;42.852;23.042;2023-04-08T06:18:53;95018.41;;;6.15;100.00
20013;BME280;10167;42.852;23.042;2023-04-08T06:21:23;95024.03;;;6.26;100.00
20013;BME280;10167;42.852;23.042;2023-04-08T06:23:54;95028.47;;;6.32;100.00
20013;BME280;10167;42.852;23.042;2023-04-08T06:26:23;95026.84;;;6.37;100.00
20013;BME280;10167;42.852;23.042;2023-04-08T06:28:53;95031.84;;;6.52;100.00
20013;BME280;10167;42.852;23.042;2023-04-08T06:31:22;95035.66;;;6.63;100.00
20013;BME280;10167;42.852;23.042;2023-04-08T06:33:52;95023.47;;;6.68;100.00
20013;BME280;10167;42.852;23.042;2023-04-08T06:36:22;95033.22;;;6.61;100.00
20013;BME280;10167;42.852;23.042;2023-04-08T06:38:51;95032.75;;;6.77;100.00
20013;BME280;10167;42.852;23.042;2023-04-08T06:41:22;95034.31;;;6.91;100.00
20013;BME280;10167;42.852;23.042;2023-04-08T06:43:51;95037.53;;;6.93;100.00
20013;BME280;10167;42.852;23.042;2023-04-08T06:46:20;95037.78;;;6.85;100.00
20013;BME280;10167;42.852;23.042;2023-04-08T06:48:49;95040.56;;;6.97;100.00
20013;BME280;10167;42.852;23.042;2023-04-08T06:51:19;95036.25;;;7.03;100.00
20013;BME280;10167;42.852;23.042;2023-04-08T06:53:48;95036.88;;;7.05;100.00
20013;BME280;10167;42.852;23.042;2023-04-08T06:56:17;95044.97;;;7.10;100.00
20013;BME280;10167;42.852;23.042;2023-04-08T06:58:49;95046.91;;;7.21;100.00
20013;BME280;10167;42.852;23.042;2023-04-08T07:01:18;95045.78;;;7.35;100.00
20013;BME280;10167;42.852;23.042;2023-04-08T07:03:48;95050.03;;;7.36;100.00
20013;BME280;10167;42.852;23.042;2023-04-08T07:06:17;95047.75;;;7.46;100.00
20013;BME280;10167;42.852;23.042;2023-04-08T07:08:46;95046.41;;;7.62;100.00
20013;BME280;10167;42.852;23.042;2023-04-08T07:11:16;95043.97;;;7.36;100.00
20013;BME280;10167;42.852;23.042;2023-04-08T07:13:45;95059.81;;;7.60;100.00
20013;BME280;10167;42.852;23.042;2023-04-08T07:16:15;95061.03;;;7.58;100.00
20013;BME280;10167;42.852;23.042;2023-04-08T07:18:45;95056.09;;;7.68;100.00
20013;BME280;10167;42.852;23.042;2023-04-08T07:21:14;95061.56;;;7.98;100.00
20013;BME280;10167;42.852;23.042;2023-04-08T07:23:43;95062.56;;;7.97;100.00
20013;BME280;10167;42.852;23.042;2023-04-08T07:26:12;95064.31;;;8.03;100.00
20013;BME280;10167;42.852;23.042;2023-04-08T07:28:42;95062.06;;;8.31;100.00
20013;BME280;10167;42.852;23.042;2023-04-08T07:31:12;95056.19;;;8.29;100.00
20013;BME280;10167;42.852;23.042;2023-04-08T07:33:44;95067.13;;;8.33;100.00
20013;BME280;10167;42.852;23.042;2023-04-08T07:36:14;95057.63;;;8.25;100.00
20013;BME280;10167;42.852;23.042;2023-04-08T07:38:44;95064.72;;;8.31;100.00
20013;BME280;10167;42.852;23.042;2023-04-08T07:41:14;95056.00;;;8.06;100.00
20013;BME280;10167;42.852;23.042;2023-04-08T07:43:43;95066.06;;;7.91;100.00
20013;BME280;10167;42.852;23.042;2023-04-08T07:46:12;95065.91;;;7.86;100.00
20013;BME280;10167;42.852;23.042;2023-04-08T07:48:41;95069.28;;;7.93;100.00
20013;BME280;10167;42.852;23.042;2023-04-08T07:51:12;95069.94;;;7.88;100.00
20013;BME280;10167;42.852;23.042;2023-04-08T07:53:41;95080.53;;;7.82;100.00
20013;BME280;10167;42.852;23.042;2023-04-08T07:56:11;95079.13;;;7.54;100.00
20013;BME280;10167;42.852;23.042;2023-04-08T07:58:41;95075.44;;;7.87;100.00
20013;BME280;10167;42.852;23.042;2023-04-08T08:01:15;95079.41;;;7.96;100.00
20013;BME280;10167;42.852;23.042;2023-04-08T08:03:44;95080.22;;;7.96;100.00
20013;BME280;10167;42.852;23.042;2023-04-08T08:06:16;95081.22;;;8.20;100.00
20013;BME280;10167;42.852;23.042;2023-04-08T08:08:45;95086.13;;;8.17;100.00
20013;BME280;10167;42.852;23.042;2023-04-08T08:11:14;95088.97;;;8.40;100.00
20013;BME280;10167;42.852;23.042;2023-04-08T08:13:43;95092.69;;;8.57;100.00
20013;BME280;10167;42.852;23.042;2023-04-08T08:16:13;95077.47;;;8.71;100.00
20013;BME280;10167;42.852;23.042;2023-04-08T08:18:42;95084.03;;;8.68;100.00
20013;BME280;10167;42.852;23.042;2023-04-08T08:21:11;95085.69;;;8.99;100.00
20013;BME280;10167;42.852;23.042;2023-04-08T08:23:42;95082.25;;;9.29;100.00
20013;BME280;10167;42.852;23.042;2023-04-08T08:26:11;95074.59;;;9.39;100.00
20013;BME280;10167;42.852;23.042;2023-04-08T08:28:40;95079.06;;;9.38;100.00
20013;BME280;10167;42.852;23.042;2023-04-08T08:31:09;95075.59;;;9.56;100.00
20013;BME280;10167;42.852;23.042;2023-04-08T08:33:39;95073.03;;;9.91;100.00
20013;BME280;10167;42.852;23.042;2023-04-08T08:36:08;95076.19;;;10.23;100.00
20013;BME280;10167;42.852;23.042;2023-04-08T08:38:38;95073.41;;;10.41;100.00
20013;BME280;10167;42.852;23.042;2023-04-08T08:41:08;95079.06;;;10.45;100.00
20013;BME280;10167;42.852;23.042;2023-04-08T08:43:38;95078.56;;;10.13;100.00
20013;BME280;10167;42.852;23.042;2023-04-08T08:46:09;95079.88;;;10.34;100.00
20013;BME280;10167;42.852;23.042;2023-04-08T08:48:39;95072.50;;;10.47;100.00
20013;BME280;10167;42.852;23.042;2023-04-08T08:51:08;95072.94;;;10.56;100.00
20013;BME280;10167;42.852;23.042;2023-04-08T08:53:38;95065.91;;;10.62;100.00
20013;BME280;10167;42.852;23.042;2023-04-08T08:56:13;95069.38;;;10.39;100.00
20013;BME280;10167;42.852;23.042;2023-04-08T08:58:45;95073.75;;;10.57;100.00
20013;BME280;10167;42.852;23.042;2023-04-08T09:01:31;95074.75;;;10.79;100.00
20013;BME280;10167;42.852;23.042;2023-04-08T09:04:10;95067.28;;;10.76;100.00
20013;BME280;10167;42.852;23.042;2023-04-08T09:06:40;95071.19;;;10.73;100.00
20013;BME280;10167;42.852;23.042;2023-04-08T09:09:10;95073.09;;;11.01;100.00
20013;BME280;10167;42.852;23.042;2023-04-08T09:11:41;95074.31;;;11.22;100.00
20013;BME280;10167;42.852;23.042;2023-04-08T09:14:18;95073.50;;;11.50;100.00
20013;BME280;10167;42.852;23.042;2023-04-08T09:16:48;95076.00;;;11.56;99.70
20013;BME280;10167;42.852;23.042;2023-04-08T09:19:18;95077.88;;;11.84;99.81
20013;BME280;10167;42.852;23.042;2023-04-08T09:22:05;95081.63;;;11.88;99.88
20013;BME280;10167;42.852;23.042;2023-04-08T09:24:35;95078.16;;;11.88;99.85
20013;BME280;10167;42.852;23.042;2023-04-08T09:27:06;95081.78;;;11.82;99.61
20013;BME280;10167;42.852;23.042;2023-04-08T09:29:35;95077.28;;;11.82;99.33
20013;BME280;10167;42.852;23.042;2023-04-08T09:32:06;95067.00;;;12.03;99.13
20013;BME280;10167;42.852;23.042;2023-04-08T09:34:35;95071.16;;;12.32;97.82
20013;BME280;10167;42.852;23.042;2023-04-08T09:37:04;95082.84;;;12.14;97.37
20013;BME280;10167;42.852;23.042;2023-04-08T09:39:33;95076.72;;;12.64;97.75
20013;BME280;10167;42.852;23.042;2023-04-08T09:42:04;95080.34;;;12.80;95.41
20013;BME280;10167;42.852;23.042;2023-04-08T09:44:38;95066.09;;;13.07;94.16
20013;BME280;10167;42.852;23.042;2023-04-08T09:47:18;95069.88;;;13.33;95.96
20013;BME280;10167;42.852;23.042;2023-04-08T09:49:52;95061.75;;;13.18;92.45
20013;BME280;10167;42.852;23.042;2023-04-08T09:52:26;95063.94;;;13.26;92.79
20013;BME280;10167;42.852;23.042;2023-04-08T09:55:01;95063.94;;;13.26;92.88
20013;BME280;10167;42.852;23.042;2023-04-08T09:57:35;95069.13;;;12.72;92.78
20013;BME280;10167;42.852;23.042;2023-04-08T10:00:12;95063.44;;;12.30;94.96
20013;BME280;10167;42.852;23.042;2023-04-08T10:02:49;95060.06;;;12.35;94.50
20013;BME280;10167;42.852;23.042;2023-04-08T10:05:24;95058.47;;;12.34;95.30
20013;BME280;10167;42.852;23.042;2023-04-08T10:07:55;95050.03;;;12.20;96.17
20013;BME280;10167;42.852;23.042;2023-04-08T10:10:24;95051.72;;;12.26;95.89
20013;BME280;10167;42.852;23.042;2023-04-08T10:12:54;95049.22;;;12.20;96.46
20013;BME280;10167;42.852;23.042;2023-04-08T10:15:29;95044.69;;;12.76;93.92
20013;BME280;10167;42.852;23.042;2023-04-08T10:18:29;95037.38;;;12.66;92.60
20013;BME280;10167;42.852;23.042;2023-04-08T10:20:58;95031.22;;;12.60;93.33
20013;BME280;10167;42.852;23.042;2023-04-08T10:23:55;95030.66;;;12.58;93.23
20013;BME280;10167;42.852;23.042;2023-04-08T10:26:37;95022.69;;;12.58;92.51
20013;BME280;10167;42.852;23.042;2023-04-08T10:29:30;95014.31;;;12.28;93.54
20013;BME280;10167;42.852;23.042;2023-04-08T10:32:02;95022.41;;;12.38;94.88
20013;BME280;10167;42.852;23.042;2023-04-08T10:34:31;95015.84;;;12.24;96.55
20013;BME280;10167;42.852;23.042;2023-04-08T10:37:00;94998.81;;;12.42;96.93
20013;BME280;10167;42.852;23.042;2023-04-08T10:39:33;94996.72;;;12.65;95.00
20013;BME280;10167;42.852;23.042;2023-04-08T10:42:07;94995.81;;;12.77;94.23
20013;BME280;10167;42.852;23.042;2023-04-08T10:44:36;94996.00;;;12.70;94.72
20013;BME280;10167;42.852;23.042;2023-04-08T10:47:07;94980.50;;;12.84;92.62
20013;BME280;10167;42.852;23.042;2023-04-08T10:49:36;94974.25;;;12.95;93.08
20013;BME280;10167;42.852;23.042;2023-04-08T10:52:08;94980.81;;;13.36;90.18
20013;BME280;10167;42.852;23.042;2023-04-08T10:54:38;94978.38;;;13.93;89.69
20013;BME280;10167;42.852;23.042;2023-04-08T10:57:15;94980.22;;;14.35;86.67
20013;BME280;10167;42.852;23.042;2023-04-08T10:59:51;94976.50;;;14.78;85.54
20013;BME280;10167;42.852;23.042;2023-04-08T11:02:21;94970.47;;;15.08;85.75
20013;BME280;10167;42.852;23.042;2023-04-08T11:04:53;94983.81;;;15.13;78.71
20013;BME280;10167;42.852;23.042;2023-04-08T11:07:24;94977.16;;;15.25;79.94
20013;BME280;10167;42.852;23.042;2023-04-08T11:09:53;94981.28;;;15.94;77.95
20013;BME280;10167;42.852;23.042;2023-04-08T11:12:23;94979.63;;;15.52;80.67
20013;BME280;10167;42.852;23.042;2023-04-08T11:14:52;94967.78;;;15.13;81.68
20013;BME280;10167;42.852;23.042;2023-04-08T11:17:23;94961.56;;;14.77;82.93
20013;BME280;10167;42.852;23.042;2023-04-08T11:19:53;94960.28;;;14.89;83.70
20013;BME280;10167;42.852;23.042;2023-04-08T11:22:22;94959.75;;;13.93;86.13
20013;BME280;10167;42.852;23.042;2023-04-08T11:24:51;94972.19;;;13.56;86.36
20013;BME280;10167;42.852;23.042;2023-04-08T11:27:21;94961.94;;;13.37;87.28
20013;BME280;10167;42.852;23.042;2023-04-08T11:29:54;94958.44;;;13.10;87.65
20013;BME280;10167;42.852;23.042;2023-04-08T11:32:25;94952.03;;;13.06;88.99
20013;BME280;10167;42.852;23.042;2023-04-08T11:34:55;94954.13;;;13.04;89.72
20013;BME280;10167;42.852;23.042;2023-04-08T11:37:25;94956.44;;;12.95;89.63
20013;BME280;10167;42.852;23.042;2023-04-08T11:39:55;94951.13;;;12.95;90.16
20013;BME280;10167;42.852;23.042;2023-04-08T11:42:28;94944.91;;;12.63;90.60
20013;BME280;10167;42.852;23.042;2023-04-08T11:44:58;94949.72;;;12.44;92.19
20013;BME280;10167;42.852;23.042;2023-04-08T11:47:32;94960.66;;;12.48;91.54
20013;BME280;10167;42.852;23.042;2023-04-08T11:50:02;94976.78;;;12.03;91.73
20013;BME280;10167;42.852;23.042;2023-04-08T11:52:41;94986.53;;;12.35;92.32
20013;BME280;10167;42.852;23.042;2023-04-08T11:55:11;94987.72;;;11.73;100.00
20013;BME280;10167;42.852;23.042;2023-04-08T11:57:41;94987.91;;;11.38;100.00
20013;BME280;10167;42.852;23.042;2023-04-08T12:00:10;94983.47;;;10.70;100.00
20013;BME280;10167;42.852;23.042;2023-04-08T12:02:41;94978.25;;;9.88;100.00
20013;BME280;10167;42.852;23.042;2023-04-08T12:05:10;94983.38;;;9.48;100.00
20013;BME280;10167;42.852;23.042;2023-04-08T12:07:40;94984.81;;;9.21;100.00
20013;BME280;10167;42.852;23.042;2023-04-08T12:10:10;94986.75;;;8.84;100.00
20013;BME280;10167;42.852;23.042;2023-04-08T12:12:40;94979.97;;;8.58;100.00
20013;BME280;10167;42.852;23.042;2023-04-08T12:15:10;94999.34;;;8.52;100.00
20013;BME280;10167;42.852;23.042;2023-04-08T12:17:41;95001.78;;;8.35;100.00
20013;BME280;10167;42.852;23.042;2023-04-08T12:20:11;95001.66;;;8.23;100.00
20013;BME280;10167;42.852;23.042;2023-04-08T12:22:40;95005.97;;;8.18;100.00
20013;BME280;10167;42.852;23.042;2023-04-08T12:25:10;94998.13;;;8.11;100.00
20013;BME280;10167;42.852;23.042;2023-04-08T12:27:40;94974.84;;;8.08;100.00
20013;BME280;10167;42.852;23.042;2023-04-08T12:30:10;94967.50;;;8.28;100.00
20013;BME280;10167;42.852;23.042;2023-04-08T12:32:44;94968.22;;;8.72;100.00
20013;BME280;10167;42.852;23.042;2023-04-08T12:35:14;94970.84;;;9.32;100.00
20013;BME280;10167;42.852;23.042;2023-04-08T12:37:43;94972.28;;;9.69;100.00
20013;BME280;10167;42.852;23.042;2023-04-08T12:40:13;94964.84;;;10.53;100.00
20013;BME280;10167;42.852;23.042;2023-04-08T12:42:42;94980.22;;;12.03;100.00
20013;BME280;10167;42.852;23.042;2023-04-08T12:45:11;94989.91;;;13.40;100.00
20013;BME280;10167;42.852;23.042;2023-04-08T12:47:41;94993.84;;;14.33;100.00
20013;BME280;10167;42.852;23.042;2023-04-08T12:50:12;94979.72;;;14.33;100.00
20013;BME280;10167;42.852;23.042;2023-04-08T12:52:41;94974.00;;;15.23;100.00
20013;BME280;10167;42.852;23.042;2023-04-08T12:55:11;94972.91;;;14.52;100.00
20013;BME280;10167;42.852;23.042;2023-04-08T12:57:40;94970.03;;;14.64;100.00
20013;BME280;10167;42.852;23.042;2023-04-08T13:00:10;94968.78;;;13.92;100.00
20013;BME280;10167;42.852;23.042;2023-04-08T13:02:40;94969.53;;;14.25;100.00
20013;BME280;10167;42.852;23.042;2023-04-08T13:05:12;94971.22;;;13.62;100.00